sensor_id;sensor_type;location;lat;lon;timestamp;P1;durP1;ratioP1;P2;durP2;ratioP2
54171;SDS011;40076;52.354;4.970;2024-02-28T00:00:22;10.40;;;5.15;;
54171;SDS011;40076;52.354;4.970;2024-02-28T00:02:47;7.40;;;4.60;;
54171;SDS011;40076;52.354;4.970;2024-02-28T00:05:12;12.55;;;5.57;;
54171;SDS011;40076;52.354;4.970;2024-02-28T00:07:38;9.00;;;5.10;;
54171;SDS011;40076;52.354;4.970;2024-02-28T00:10:03;9.18;;;5.78;;
54171;SDS011;40076;52.354;4.970;2024-02-28T00:12:29;9.48;;;4.97;;
54171;SDS011;40076;52.354;4.970;2024-02-28T00:14:54;8.73;;;5.53;;
54171;SDS011;40076;52.354;4.970;2024-02-28T00:17:19;11.48;;;6.00;;
54171;SDS011;40076;52.354;4.970;2024-02-28T00:19:45;12.00;;;5.75;;
54171;SDS011;40076;52.354;4.970;2024-02-28T00:22:10;9.27;;;5.57;;
54171;SDS011;40076;52.354;4.970;2024-02-28T00:24:35;8.52;;;5.53;;
54171;SDS011;40076;52.354;4.970;2024-02-28T00:27:01;8.82;;;5.20;;
54171;SDS011;40076;52.354;4.970;2024-02-28T00:29:26;11.52;;;5.85;;
54171;SDS011;40076;52.354;4.970;2024-02-28T00:31:52;8.77;;;5.82;;
54171;SDS011;40076;52.354;4.970;2024-02-28T00:34:17;13.55;;;6.97;;
54171;SDS011;40076;52.354;4.970;2024-02-28T00:36:43;11.73;;;6.32;;
54171;SDS011;40076;52.354;4.970;2024-02-28T00:39:08;10.65;;;6.38;;
54171;SDS011;40076;52.354;4.970;2024-02-28T00:41:34;10.95;;;6.88;;
54171;SDS011;40076;52.354;4.970;2024-02-28T00:43:59;13.48;;;7.45;;
54171;SDS011;40076;52.354;4.970;2024-02-28T00:46:24;10.02;;;6.38;;
54171;SDS011;40076;52.354;4.970;2024-02-28T00:48:50;9.88;;;6.60;;
54171;SDS011;40076;52.354;4.970;2024-02-28T00:51:15;8.90;;;6.43;;
54171;SDS011;40076;52.354;4.970;2024-02-28T00:53:41;11.38;;;6.97;;
54171;SDS011;40076;52.354;4.970;2024-02-28T00:56:08;12.35;;;6.63;;
54171;SDS011;40076;52.354;4.970;2024-02-28T00:58:33;12.02;;;6.45;;
54171;SDS011;40076;52.354;4.970;2024-02-28T01:01:01;8.95;;;6.28;;
54171;SDS011;40076;52.354;4.970;2024-02-28T01:03:27;12.63;;;6.90;;
54171;SDS011;40076;52.354;4.970;2024-02-28T01:05:52;11.95;;;7.07;;
54171;SDS011;40076;52.354;4.970;2024-02-28T01:08:17;11.60;;;6.82;;
54171;SDS011;40076;52.354;4.970;2024-02-28T01:10:44;9.80;;;6.38;;
54171;SDS011;40076;52.354;4.970;2024-02-28T01:13:09;14.05;;;7.30;;
54171;SDS011;40076;52.354;4.970;2024-02-28T01:15:35;16.52;;;7.00;;
54171;SDS011;40076;52.354;4.970;2024-02-28T01:18:00;13.10;;;8.13;;
54171;SDS011;40076;52.354;4.970;2024-02-28T01:20:25;11.77;;;6.65;;
54171;SDS011;40076;52.354;4.970;2024-02-28T01:22:53;11.38;;;7.05;;
54171;SDS011;40076;52.354;4.970;2024-02-28T01:25:18;17.73;;;7.32;;
54171;SDS011;40076;52.354;4.970;2024-02-28T01:27:44;10.57;;;6.85;;
54171;SDS011;40076;52.354;4.970;2024-02-28T01:30:09;10.23;;;6.65;;
54171;SDS011;40076;52.354;4.970;2024-02-28T01:32:35;10.25;;;6.40;;
54171;SDS011;40076;52.354;4.970;2024-02-28T01:35:02;10.93;;;6.50;;
54171;SDS011;40076;52.354;4.970;2024-02-28T01:37:28;9.50;;;6.47;;
54171;SDS011;40076;52.354;4.970;2024-02-28T01:39:53;11.55;;;6.45;;
54171;SDS011;40076;52.354;4.970;2024-02-28T01:42:18;12.52;;;6.57;;
54171;SDS011;40076;52.354;4.970;2024-02-28T01:44:46;10.68;;;6.93;;
54171;SDS011;40076;52.354;4.970;2024-02-28T01:47:13;10.50;;;6.57;;
54171;SDS011;40076;52.354;4.970;2024-02-28T01:49:39;12.70;;;7.72;;
54171;SDS011;40076;52.354;4.970;2024-02-28T01:52:06;13.38;;;8.13;;
54171;SDS011;40076;52.354;4.970;2024-02-28T01:54:32;13.57;;;8.05;;
54171;SDS011;40076;52.354;4.970;2024-02-28T01:57:00;12.52;;;8.00;;
54171;SDS011;40076;52.354;4.970;2024-02-28T01:59:28;14.45;;;8.77;;
54171;SDS011;40076;52.354;4.970;2024-02-28T02:01:55;15.20;;;8.77;;
54171;SDS011;40076;52.354;4.970;2024-02-28T02:04:20;13.50;;;8.88;;
54171;SDS011;40076;52.354;4.970;2024-02-28T02:06:49;13.27;;;9.43;;
54171;SDS011;40076;52.354;4.970;2024-02-28T02:09:14;13.40;;;9.20;;
54171;SDS011;40076;52.354;4.970;2024-02-28T02:11:41;16.58;;;9.20;;
54171;SDS011;40076;52.354;4.970;2024-02-28T02:14:06;12.52;;;8.68;;
54171;SDS011;40076;52.354;4.970;2024-02-28T02:16:31;15.95;;;10.30;;
54171;SDS011;40076;52.354;4.970;2024-02-28T02:18:57;9.90;;;8.18;;
54171;SDS011;40076;52.354;4.970;2024-02-28T02:21:23;11.32;;;9.52;;
54171;SDS011;40076;52.354;4.970;2024-02-28T02:23:49;13.45;;;10.13;;
54171;SDS011;40076;52.354;4.970;2024-02-28T02:26:15;15.23;;;9.07;;
54171;SDS011;40076;52.354;4.970;2024-02-28T02:28:40;14.23;;;9.95;;
54171;SDS011;40076;52.354;4.970;2024-02-28T02:31:06;12.13;;;9.55;;
54171;SDS011;40076;52.354;4.970;2024-02-28T02:33:31;15.45;;;9.48;;
54171;SDS011;40076;52.354;4.970;2024-02-28T02:35:56;14.68;;;10.05;;
54171;SDS011;40076;52.354;4.970;2024-02-28T02:38:22;12.27;;;10.18;;
54171;SDS011;40076;52.354;4.970;2024-02-28T02:40:51;14.02;;;9.38;;
54171;SDS011;40076;52.354;4.970;2024-02-28T02:43:17;15.55;;;9.65;;
54171;SDS011;40076;52.354;4.970;2024-02-28T02:45:43;14.35;;;10.23;;
54171;SDS011;40076;52.354;4.970;2024-02-28T02:48:09;14.18;;;9.57;;
54171;SDS011;40076;52.354;4.970;2024-02-28T02:50:34;14.20;;;9.45;;
54171;SDS011;40076;52.354;4.970;2024-02-28T02:53:00;13.65;;;9.80;;
54171;SDS011;40076;52.354;4.970;2024-02-28T02:55:26;13.27;;;10.38;;
54171;SDS011;40076;52.354;4.970;2024-02-28T02:57:51;17.70;;;10.57;;
54171;SDS011;40076;52.354;4.970;2024-02-28T03:00:17;17.08;;;10.05;;
54171;SDS011;40076;52.354;4.970;2024-02-28T03:02:42;12.90;;;9.82;;
54171;SDS011;40076;52.354;4.970;2024-02-28T03:05:07;15.45;;;9.95;;
54171;SDS011;40076;52.354;4.970;2024-02-28T03:07:33;15.38;;;10.15;;
54171;SDS011;40076;52.354;4.970;2024-02-28T03:09:59;16.27;;;9.73;;
54171;SDS011;40076;52.354;4.970;2024-02-28T03:12:29;13.65;;;10.18;;
54171;SDS011;40076;52.354;4.970;2024-02-28T03:14:54;15.07;;;9.95;;
54171;SDS011;40076;52.354;4.970;2024-02-28T03:17:19;14.40;;;10.18;;
54171;SDS011;40076;52.354;4.970;2024-02-28T03:19:45;14.70;;;9.45;;
54171;SDS011;40076;52.354;4.970;2024-02-28T03:22:10;19.58;;;10.40;;
54171;SDS011;40076;52.354;4.970;2024-02-28T03:24:36;16.90;;;10.45;;
54171;SDS011;40076;52.354;4.970;2024-02-28T03:27:01;18.40;;;10.23;;
54171;SDS011;40076;52.354;4.970;2024-02-28T03:29:27;14.00;;;9.85;;
54171;SDS011;40076;52.354;4.970;2024-02-28T03:31:53;15.15;;;10.30;;
54171;SDS011;40076;52.354;4.970;2024-02-28T03:34:18;15.23;;;10.50;;
54171;SDS011;40076;52.354;4.970;2024-02-28T03:36:44;22.27;;;11.00;;
54171;SDS011;40076;52.354;4.970;2024-02-28T03:39:09;14.15;;;10.27;;
54171;SDS011;40076;52.354;4.970;2024-02-28T03:41:35;17.90;;;12.20;;
54171;SDS011;40076;52.354;4.970;2024-02-28T03:44:00;19.80;;;10.68;;
54171;SDS011;40076;52.354;4.970;2024-02-28T03:46:25;14.73;;;10.25;;
54171;SDS011;40076;52.354;4.970;2024-02-28T03:48:51;16.90;;;10.55;;
54171;SDS011;40076;52.354;4.970;2024-02-28T03:51:16;16.48;;;11.38;;
54171;SDS011;40076;52.354;4.970;2024-02-28T03:53:41;19.50;;;11.38;;
54171;SDS011;40076;52.354;4.970;2024-02-28T03:56:07;16.23;;;11.57;;
54171;SDS011;40076;52.354;4.970;2024-02-28T03:58:32;16.25;;;11.95;;
54171;SDS011;40076;52.354;4.970;2024-02-28T04:00:57;15.27;;;11.52;;
54171;SDS011;40076;52.354;4.970;2024-02-28T04:03:23;16.35;;;11.30;;
54171;SDS011;40076;52.354;4.970;2024-02-28T04:05:48;14.77;;;10.77;;
54171;SDS011;40076;52.354;4.970;2024-02-28T04:08:13;17.42;;;12.00;;
54171;SDS011;40076;52.354;4.970;2024-02-28T04:10:39;17.83;;;11.68;;
54171;SDS011;40076;52.354;4.970;2024-02-28T04:13:04;19.17;;;12.07;;
54171;SDS011;40076;52.354;4.970;2024-02-28T04:15:30;19.25;;;12.25;;
54171;SDS011;40076;52.354;4.970;2024-02-28T04:17:55;19.30;;;12.30;;
54171;SDS011;40076;52.354;4.970;2024-02-28T04:20:21;16.58;;;12.15;;
54171;SDS011;40076;52.354;4.970;2024-02-28T04:22:46;16.48;;;12.20;;
54171;SDS011;40076;52.354;4.970;2024-02-28T04:25:11;17.40;;;13.10;;
54171;SDS011;40076;52.354;4.970;2024-02-28T04:27:37;15.80;;;11.73;;
54171;SDS011;40076;52.354;4.970;2024-02-28T04:30:05;17.05;;;12.98;;
54171;SDS011;40076;52.354;4.970;2024-02-28T04:32:31;21.02;;;13.93;;
54171;SDS011;40076;52.354;4.970;2024-02-28T04:34:56;19.35;;;13.73;;
54171;SDS011;40076;52.354;4.970;2024-02-28T04:37:22;16.65;;;13.15;;
54171;SDS011;40076;52.354;4.970;2024-02-28T04:39:47;19.67;;;14.38;;
54171;SDS011;40076;52.354;4.970;2024-02-28T04:42:13;19.90;;;14.23;;
54171;SDS011;40076;52.354;4.970;2024-02-28T04:44:41;22.42;;;14.25;;
54171;SDS011;40076;52.354;4.970;2024-02-28T04:47:06;16.50;;;14.15;;
54171;SDS011;40076;52.354;4.970;2024-02-28T04:49:32;18.73;;;13.98;;
54171;SDS011;40076;52.354;4.970;2024-02-28T04:51:57;19.38;;;15.00;;
54171;SDS011;40076;52.354;4.970;2024-02-28T04:54:23;20.27;;;14.68;;
54171;SDS011;40076;52.354;4.970;2024-02-28T04:56:49;19.63;;;13.98;;
54171;SDS011;40076;52.354;4.970;2024-02-28T04:59:16;22.70;;;15.52;;
54171;SDS011;40076;52.354;4.970;2024-02-28T05:01:41;23.10;;;15.43;;
54171;SDS011;40076;52.354;4.970;2024-02-28T05:04:08;22.27;;;16.27;;
54171;SDS011;40076;52.354;4.970;2024-02-28T05:06:34;23.20;;;17.48;;
54171;SDS011;40076;52.354;4.970;2024-02-28T05:09:00;24.33;;;16.75;;
54171;SDS011;40076;52.354;4.970;2024-02-28T05:11:26;22.27;;;16.55;;
54171;SDS011;40076;52.354;4.970;2024-02-28T05:13:51;21.58;;;17.23;;
54171;SDS011;40076;52.354;4.970;2024-02-28T05:16:17;23.00;;;16.85;;
54171;SDS011;40076;52.354;4.970;2024-02-28T05:18:45;23.30;;;16.27;;
54171;SDS011;40076;52.354;4.970;2024-02-28T05:21:11;23.48;;;17.30;;
54171;SDS011;40076;52.354;4.970;2024-02-28T05:23:36;22.85;;;16.92;;
54171;SDS011;40076;52.354;4.970;2024-02-28T05:26:02;23.02;;;16.70;;
54171;SDS011;40076;52.354;4.970;2024-02-28T05:28:32;22.55;;;16.83;;
54171;SDS011;40076;52.354;4.970;2024-02-28T05:30:59;25.65;;;16.90;;
54171;SDS011;40076;52.354;4.970;2024-02-28T05:33:27;24.45;;;16.80;;
54171;SDS011;40076;52.354;4.970;2024-02-28T05:35:53;24.42;;;16.58;;
54171;SDS011;40076;52.354;4.970;2024-02-28T05:38:18;25.67;;;17.55;;
54171;SDS011;40076;52.354;4.970;2024-02-28T05:40:44;26.25;;;17.30;;
54171;SDS011;40076;52.354;4.970;2024-02-28T05:43:09;25.05;;;17.20;;
54171;SDS011;40076;52.354;4.970;2024-02-28T05:45:34;22.67;;;17.58;;
54171;SDS011;40076;52.354;4.970;2024-02-28T05:48:00;28.70;;;18.40;;
54171;SDS011;40076;52.354;4.970;2024-02-28T05:50:25;28.10;;;17.70;;
54171;SDS011;40076;52.354;4.970;2024-02-28T05:52:51;25.13;;;18.33;;
54171;SDS011;40076;52.354;4.970;2024-02-28T05:55:17;22.98;;;17.50;;
54171;SDS011;40076;52.354;4.970;2024-02-28T05:57:42;26.98;;;18.00;;
54171;SDS011;40076;52.354;4.970;2024-02-28T06:00:08;29.15;;;18.10;;
54171;SDS011;40076;52.354;4.970;2024-02-28T06:02:38;26.48;;;17.25;;
54171;SDS011;40076;52.354;4.970;2024-02-28T06:05:03;26.35;;;17.95;;
54171;SDS011;40076;52.354;4.970;2024-02-28T06:07:29;31.98;;;19.60;;
54171;SDS011;40076;52.354;4.970;2024-02-28T06:09:55;27.65;;;18.45;;
54171;SDS011;40076;52.354;4.970;2024-02-28T06:12:21;25.30;;;17.80;;
54171;SDS011;40076;52.354;4.970;2024-02-28T06:14:46;34.10;;;18.95;;
54171;SDS011;40076;52.354;4.970;2024-02-28T06:17:12;28.02;;;18.95;;
54171;SDS011;40076;52.354;4.970;2024-02-28T06:19:38;29.40;;;18.75;;
54171;SDS011;40076;52.354;4.970;2024-02-28T06:22:03;27.52;;;19.05;;
54171;SDS011;40076;52.354;4.970;2024-02-28T06:24:33;29.90;;;19.63;;
54171;SDS011;40076;52.354;4.970;2024-02-28T06:26:59;31.38;;;19.73;;
54171;SDS011;40076;52.354;4.970;2024-02-28T06:29:24;31.33;;;19.73;;
54171;SDS011;40076;52.354;4.970;2024-02-28T06:31:50;30.90;;;20.10;;
54171;SDS011;40076;52.354;4.970;2024-02-28T06:34:16;28.70;;;19.92;;
54171;SDS011;40076;52.354;4.970;2024-02-28T06:36:42;33.20;;;21.23;;
54171;SDS011;40076;52.354;4.970;2024-02-28T06:39:07;29.50;;;21.52;;
54171;SDS011;40076;52.354;4.970;2024-02-28T06:41:33;35.35;;;21.88;;
54171;SDS011;40076;52.354;4.970;2024-02-28T06:44:00;32.00;;;21.33;;
54171;SDS011;40076;52.354;4.970;2024-02-28T06:46:26;30.60;;;21.83;;
54171;SDS011;40076;52.354;4.970;2024-02-28T06:48:51;36.25;;;22.27;;
54171;SDS011;40076;52.354;4.970;2024-02-28T06:51:17;33.15;;;21.77;;
54171;SDS011;40076;52.354;4.970;2024-02-28T06:53:42;36.15;;;21.88;;
54171;SDS011;40076;52.354;4.970;2024-02-28T06:56:10;40.10;;;23.15;;
54171;SDS011;40076;52.354;4.970;2024-02-28T06:58:36;39.95;;;23.42;;
54171;SDS011;40076;52.354;4.970;2024-02-28T07:01:01;38.10;;;24.02;;
54171;SDS011;40076;52.354;4.970;2024-02-28T07:03:26;38.70;;;25.42;;
54171;SDS011;40076;52.354;4.970;2024-02-28T07:05:52;51.45;;;27.15;;
54171;SDS011;40076;52.354;4.970;2024-02-28T07:08:19;44.85;;;27.65;;
54171;SDS011;40076;52.354;4.970;2024-02-28T07:10:46;46.40;;;26.27;;
54171;SDS011;40076;52.354;4.970;2024-02-28T07:13:14;43.58;;;26.23;;
54171;SDS011;40076;52.354;4.970;2024-02-28T07:15:39;47.50;;;28.50;;
54171;SDS011;40076;52.354;4.970;2024-02-28T07:18:06;42.08;;;27.50;;
54171;SDS011;40076;52.354;4.970;2024-02-28T07:20:32;44.13;;;28.00;;
54171;SDS011;40076;52.354;4.970;2024-02-28T07:22:57;45.40;;;29.55;;
54171;SDS011;40076;52.354;4.970;2024-02-28T07:25:23;52.85;;;30.10;;
54171;SDS011;40076;52.354;4.970;2024-02-28T07:27:48;50.38;;;30.75;;
54171;SDS011;40076;52.354;4.970;2024-02-28T07:30:14;54.28;;;32.55;;
54171;SDS011;40076;52.354;4.970;2024-02-28T07:32:39;47.30;;;30.33;;
54171;SDS011;40076;52.354;4.970;2024-02-28T07:35:05;47.85;;;30.85;;
54171;SDS011;40076;52.354;4.970;2024-02-28T07:37:30;52.35;;;32.22;;
54171;SDS011;40076;52.354;4.970;2024-02-28T07:39:56;56.40;;;33.58;;
54171;SDS011;40076;52.354;4.970;2024-02-28T07:42:21;55.55;;;32.95;;
54171;SDS011;40076;52.354;4.970;2024-02-28T07:44:46;58.58;;;34.13;;
54171;SDS011;40076;52.354;4.970;2024-02-28T07:47:12;57.95;;;33.85;;
54171;SDS011;40076;52.354;4.970;2024-02-28T07:49:39;50.28;;;33.03;;
54171;SDS011;40076;52.354;4.970;2024-02-28T07:52:05;54.45;;;34.63;;
54171;SDS011;40076;52.354;4.970;2024-02-28T07:54:30;60.50;;;35.47;;
54171;SDS011;40076;52.354;4.970;2024-02-28T07:56:55;59.50;;;35.42;;
54171;SDS011;40076;52.354;4.970;2024-02-28T07:59:21;57.55;;;35.10;;
54171;SDS011;40076;52.354;4.970;2024-02-28T08:01:47;54.20;;;34.65;;
54171;SDS011;40076;52.354;4.970;2024-02-28T08:04:12;56.78;;;35.05;;
54171;SDS011;40076;52.354;4.970;2024-02-28T08:06:39;53.17;;;33.13;;
54171;SDS011;40076;52.354;4.970;2024-02-28T08:09:05;60.63;;;36.38;;
54171;SDS011;40076;52.354;4.970;2024-02-28T08:11:30;54.95;;;35.13;;
54171;SDS011;40076;52.354;4.970;2024-02-28T08:13:56;52.10;;;34.95;;
54171;SDS011;40076;52.354;4.970;2024-02-28T08:16:21;55.60;;;35.47;;
54171;SDS011;40076;52.354;4.970;2024-02-28T08:18:46;53.85;;;35.47;;
54171;SDS011;40076;52.354;4.970;2024-02-28T08:21:12;49.55;;;33.05;;
54171;SDS011;40076;52.354;4.970;2024-02-28T08:23:37;50.10;;;34.30;;
54171;SDS011;40076;52.354;4.970;2024-02-28T08:26:05;54.45;;;34.78;;
54171;SDS011;40076;52.354;4.970;2024-02-28T08:28:30;50.78;;;35.28;;
54171;SDS011;40076;52.354;4.970;2024-02-28T08:30:56;52.08;;;34.33;;
54171;SDS011;40076;52.354;4.970;2024-02-28T08:33:23;47.80;;;32.83;;
54171;SDS011;40076;52.354;4.970;2024-02-28T08:35:48;52.95;;;34.08;;
54171;SDS011;40076;52.354;4.970;2024-02-28T08:38:15;54.88;;;35.20;;
54171;SDS011;40076;52.354;4.970;2024-02-28T08:40:41;47.22;;;34.00;;
54171;SDS011;40076;52.354;4.970;2024-02-28T08:43:06;50.33;;;33.85;;
54171;SDS011;40076;52.354;4.970;2024-02-28T08:45:32;47.95;;;33.80;;
54171;SDS011;40076;52.354;4.970;2024-02-28T08:47:57;50.33;;;35.70;;
54171;SDS011;40076;52.354;4.970;2024-02-28T08:50:26;45.22;;;34.17;;
54171;SDS011;40076;52.354;4.970;2024-02-28T08:52:54;53.30;;;35.33;;
54171;SDS011;40076;52.354;4.970;2024-02-28T08:55:19;53.85;;;36.83;;
54171;SDS011;40076;52.354;4.970;2024-02-28T08:57:46;49.97;;;34.17;;
54171;SDS011;40076;52.354;4.970;2024-02-28T09:00:12;55.55;;;35.10;;
54171;SDS011;40076;52.354;4.970;2024-02-28T09:02:38;56.47;;;36.28;;
54171;SDS011;40076;52.354;4.970;2024-02-28T09:05:06;53.88;;;36.75;;
54171;SDS011;40076;52.354;4.970;2024-02-28T09:07:32;60.47;;;35.03;;
54171;SDS011;40076;52.354;4.970;2024-02-28T09:09:57;53.15;;;36.38;;
54171;SDS011;40076;52.354;4.970;2024-02-28T09:12:23;50.10;;;35.63;;
54171;SDS011;40076;52.354;4.970;2024-02-28T09:14:49;56.95;;;35.95;;
54171;SDS011;40076;52.354;4.970;2024-02-28T09:17:22;56.08;;;37.90;;
54171;SDS011;40076;52.354;4.970;2024-02-28T09:19:47;56.17;;;37.97;;
54171;SDS011;40076;52.354;4.970;2024-02-28T09:22:13;50.45;;;36.13;;
54171;SDS011;40076;52.354;4.970;2024-02-28T09:24:40;56.22;;;33.83;;
54171;SDS011;40076;52.354;4.970;2024-02-28T09:27:08;52.15;;;35.88;;
54171;SDS011;40076;52.354;4.970;2024-02-28T09:29:33;51.17;;;35.55;;
54171;SDS011;40076;52.354;4.970;2024-02-28T09:31:58;49.22;;;35.15;;
54171;SDS011;40076;52.354;4.970;2024-02-28T09:34:24;48.33;;;34.30;;
54171;SDS011;40076;52.354;4.970;2024-02-28T09:36:49;50.72;;;34.53;;
54171;SDS011;40076;52.354;4.970;2024-02-28T09:39:15;46.58;;;32.75;;
54171;SDS011;40076;52.354;4.970;2024-02-28T09:41:40;47.58;;;32.33;;
54171;SDS011;40076;52.354;4.970;2024-02-28T09:44:06;44.15;;;31.27;;
54171;SDS011;40076;52.354;4.970;2024-02-28T09:46:32;43.35;;;31.05;;
54171;SDS011;40076;52.354;4.970;2024-02-28T09:49:04;44.65;;;29.95;;
54171;SDS011;40076;52.354;4.970;2024-02-28T09:51:34;38.15;;;29.00;;
54171;SDS011;40076;52.354;4.970;2024-02-28T09:54:01;39.72;;;28.05;;
54171;SDS011;40076;52.354;4.970;2024-02-28T09:56:29;36.50;;;27.92;;
54171;SDS011;40076;52.354;4.970;2024-02-28T09:58:55;39.42;;;28.17;;
54171;SDS011;40076;52.354;4.970;2024-02-28T10:01:25;39.75;;;27.63;;
54171;SDS011;40076;52.354;4.970;2024-02-28T10:03:51;36.83;;;26.83;;
54171;SDS011;40076;52.354;4.970;2024-02-28T10:06:21;38.40;;;28.58;;
54171;SDS011;40076;52.354;4.970;2024-02-28T10:08:47;33.92;;;26.45;;
54171;SDS011;40076;52.354;4.970;2024-02-28T10:11:19;40.05;;;28.08;;
54171;SDS011;40076;52.354;4.970;2024-02-28T10:13:48;37.72;;;27.98;;
54171;SDS011;40076;52.354;4.970;2024-02-28T10:16:13;44.13;;;27.73;;
54171;SDS011;40076;52.354;4.970;2024-02-28T10:18:42;43.35;;;27.40;;
54171;SDS011;40076;52.354;4.970;2024-02-28T10:21:09;42.88;;;27.45;;
54171;SDS011;40076;52.354;4.970;2024-02-28T10:23:37;38.65;;;28.67;;
54171;SDS011;40076;52.354;4.970;2024-02-28T10:26:04;37.42;;;28.20;;
54171;SDS011;40076;52.354;4.970;2024-02-28T10:28:29;40.45;;;29.35;;
54171;SDS011;40076;52.354;4.970;2024-02-28T10:30:55;50.58;;;31.17;;
54171;SDS011;40076;52.354;4.970;2024-02-28T10:33:20;40.50;;;30.10;;
54171;SDS011;40076;52.354;4.970;2024-02-28T10:35:45;45.22;;;30.33;;
54171;SDS011;40076;52.354;4.970;2024-02-28T10:38:18;41.28;;;30.48;;
54171;SDS011;40076;52.354;4.970;2024-02-28T10:40:43;42.50;;;31.00;;
54171;SDS011;40076;52.354;4.970;2024-02-28T10:43:09;41.03;;;30.35;;
54171;SDS011;40076;52.354;4.970;2024-02-28T10:45:38;45.05;;;31.23;;
54171;SDS011;40076;52.354;4.970;2024-02-28T10:48:04;41.47;;;30.30;;
54171;SDS011;40076;52.354;4.970;2024-02-28T10:50:30;44.20;;;30.67;;
54171;SDS011;40076;52.354;4.970;2024-02-28T10:52:57;39.80;;;30.38;;
54171;SDS011;40076;52.354;4.970;2024-02-28T10:55:27;44.42;;;30.15;;
54171;SDS011;40076;52.354;4.970;2024-02-28T10:58:17;40.88;;;31.52;;
54171;SDS011;40076;52.354;4.970;2024-02-28T11:00:47;41.80;;;30.65;;
54171;SDS011;40076;52.354;4.970;2024-02-28T11:03:17;40.42;;;30.45;;
54171;SDS011;40076;52.354;4.970;2024-02-28T11:05:43;38.22;;;29.48;;
54171;SDS011;40076;52.354;4.970;2024-02-28T11:08:19;39.33;;;29.02;;
54171;SDS011;40076;52.354;4.970;2024-02-28T11:10:47;45.70;;;30.75;;
54171;SDS011;40076;52.354;4.970;2024-02-28T11:13:25;42.78;;;27.95;;
54171;SDS011;40076;52.354;4.970;2024-02-28T11:15:52;40.08;;;28.17;;
54171;SDS011;40076;52.354;4.970;2024-02-28T11:18:18;39.03;;;28.40;;
54171;SDS011;40076;52.354;4.970;2024-02-28T11:20:44;38.53;;;28.33;;
54171;SDS011;40076;52.354;4.970;2024-02-28T11:23:12;32.90;;;26.45;;
54171;SDS011;40076;52.354;4.970;2024-02-28T11:25:39;33.45;;;27.27;;
54171;SDS011;40076;52.354;4.970;2024-02-28T11:28:05;31.17;;;25.20;;
54171;SDS011;40076;52.354;4.970;2024-02-28T11:30:31;30.60;;;24.52;;
54171;SDS011;40076;52.354;4.970;2024-02-28T11:32:57;32.85;;;24.40;;
54171;SDS011;40076;52.354;4.970;2024-02-28T11:35:24;35.10;;;26.25;;
54171;SDS011;40076;52.354;4.970;2024-02-28T11:37:53;29.23;;;24.80;;
54171;SDS011;40076;52.354;4.970;2024-02-28T11:40:22;36.33;;;23.50;;
54171;SDS011;40076;52.354;4.970;2024-02-28T11:42:51;32.63;;;23.85;;
54171;SDS011;40076;52.354;4.970;2024-02-28T11:45:17;30.30;;;23.50;;
54171;SDS011;40076;52.354;4.970;2024-02-28T11:47:44;32.72;;;23.52;;
54171;SDS011;40076;52.354;4.970;2024-02-28T11:50:10;30.20;;;23.70;;
54171;SDS011;40076;52.354;4.970;2024-02-28T11:52:36;28.65;;;23.65;;
54171;SDS011;40076;52.354;4.970;2024-02-28T11:55:02;30.45;;;21.73;;
54171;SDS011;40076;52.354;4.970;2024-02-28T11:57:31;28.25;;;20.83;;
54171;SDS011;40076;52.354;4.970;2024-02-28T12:02:32;28.23;;;20.48;;
54171;SDS011;40076;52.354;4.970;2024-02-28T12:05:01;30.63;;;22.13;;
54171;SDS011;40076;52.354;4.970;2024-02-28T12:07:28;29.08;;;21.98;;
54171;SDS011;40076;52.354;4.970;2024-02-28T12:09:54;25.30;;;20.15;;
54171;SDS011;40076;52.354;4.970;2024-02-28T12:12:19;25.10;;;20.00;;
54171;SDS011;40076;52.354;4.970;2024-02-28T12:14:46;22.85;;;18.88;;
54171;SDS011;40076;52.354;4.970;2024-02-28T12:17:13;31.73;;;21.10;;
54171;SDS011;40076;52.354;4.970;2024-02-28T12:19:39;26.38;;;20.20;;
54171;SDS011;40076;52.354;4.970;2024-02-28T12:22:05;27.58;;;21.05;;
54171;SDS011;40076;52.354;4.970;2024-02-28T12:24:30;28.25;;;21.48;;
54171;SDS011;40076;52.354;4.970;2024-02-28T12:26:56;28.40;;;22.55;;
54171;SDS011;40076;52.354;4.970;2024-02-28T12:29:21;28.65;;;22.38;;
54171;SDS011;40076;52.354;4.970;2024-02-28T12:31:48;30.23;;;24.02;;
54171;SDS011;40076;52.354;4.970;2024-02-28T12:34:14;35.40;;;25.90;;
54171;SDS011;40076;52.354;4.970;2024-02-28T12:36:40;32.50;;;26.55;;
54171;SDS011;40076;52.354;4.970;2024-02-28T12:39:07;37.42;;;29.05;;
54171;SDS011;40076;52.354;4.970;2024-02-28T12:41:32;40.35;;;29.50;;
54171;SDS011;40076;52.354;4.970;2024-02-28T12:43:58;37.50;;;28.83;;
54171;SDS011;40076;52.354;4.970;2024-02-28T12:46:23;35.45;;;29.02;;
54171;SDS011;40076;52.354;4.970;2024-02-28T12:48:48;39.95;;;31.05;;
54171;SDS011;40076;52.354;4.970;2024-02-28T12:51:20;36.72;;;28.52;;
54171;SDS011;40076;52.354;4.970;2024-02-28T12:54:00;35.00;;;27.73;;
54171;SDS011;40076;52.354;4.970;2024-02-28T12:56:26;33.58;;;25.67;;
54171;SDS011;40076;52.354;4.970;2024-02-28T12:58:51;34.28;;;25.50;;
54171;SDS011;40076;52.354;4.970;2024-02-28T13:01:16;32.50;;;25.27;;
54171;SDS011;40076;52.354;4.970;2024-02-28T13:03:42;41.13;;;26.23;;
54171;SDS011;40076;52.354;4.970;2024-02-28T13:06:07;34.97;;;25.33;;
54171;SDS011;40076;52.354;4.970;2024-02-28T13:08:32;35.38;;;25.42;;
54171;SDS011;40076;52.354;4.970;2024-02-28T13:10:58;29.70;;;21.15;;
54171;SDS011;40076;52.354;4.970;2024-02-28T13:13:25;27.15;;;21.48;;
54171;SDS011;40076;52.354;4.970;2024-02-28T13:15:51;23.45;;;19.02;;
54171;SDS011;40076;52.354;4.970;2024-02-28T13:18:16;23.30;;;19.17;;
54171;SDS011;40076;52.354;4.970;2024-02-28T13:20:42;25.98;;;20.92;;
54171;SDS011;40076;52.354;4.970;2024-02-28T13:23:07;31.38;;;21.55;;
54171;SDS011;40076;52.354;4.970;2024-02-28T13:25:35;29.15;;;21.30;;
54171;SDS011;40076;52.354;4.970;2024-02-28T13:28:00;29.92;;;22.50;;
54171;SDS011;40076;52.354;4.970;2024-02-28T13:30:25;28.52;;;22.23;;
54171;SDS011;40076;52.354;4.970;2024-02-28T13:32:51;28.83;;;22.23;;
54171;SDS011;40076;52.354;4.970;2024-02-28T13:35:16;27.40;;;21.92;;
54171;SDS011;40076;52.354;4.970;2024-02-28T13:37:42;30.20;;;21.30;;
54171;SDS011;40076;52.354;4.970;2024-02-28T13:40:08;28.65;;;21.67;;
54171;SDS011;40076;52.354;4.970;2024-02-28T13:42:37;32.92;;;22.80;;
54171;SDS011;40076;52.354;4.970;2024-02-28T13:45:03;30.23;;;22.45;;
54171;SDS011;40076;52.354;4.970;2024-02-28T13:47:32;27.63;;;22.17;;
54171;SDS011;40076;52.354;4.970;2024-02-28T13:49:58;33.60;;;22.25;;
54171;SDS011;40076;52.354;4.970;2024-02-28T13:52:25;27.52;;;22.33;;
54171;SDS011;40076;52.354;4.970;2024-02-28T13:54:53;31.08;;;22.27;;
54171;SDS011;40076;52.354;4.970;2024-02-28T13:57:19;32.42;;;23.65;;
54171;SDS011;40076;52.354;4.970;2024-02-28T13:59:45;31.90;;;24.38;;
54171;SDS011;40076;52.354;4.970;2024-02-28T14:02:14;33.97;;;23.63;;
54171;SDS011;40076;52.354;4.970;2024-02-28T14:04:40;33.92;;;23.52;;
54171;SDS011;40076;52.354;4.970;2024-02-28T14:07:07;31.48;;;23.90;;
54171;SDS011;40076;52.354;4.970;2024-02-28T14:09:33;32.00;;;22.88;;
54171;SDS011;40076;52.354;4.970;2024-02-28T14:11:59;31.48;;;21.73;;
54171;SDS011;40076;52.354;4.970;2024-02-28T14:14:25;31.60;;;21.98;;
54171;SDS011;40076;52.354;4.970;2024-02-28T14:16:50;30.08;;;21.63;;
54171;SDS011;40076;52.354;4.970;2024-02-28T14:19:16;31.55;;;20.67;;
54171;SDS011;40076;52.354;4.970;2024-02-28T14:21:41;29.70;;;21.02;;